Terminal Aerodrome Forecast
Issued by NWS Cleveland, OH

Home | Current Version | Previous Version | Graphics & Text | Print | Product List | Glossary On
Versions: 1 2 3 4 5 6 7 8 9 10 11 12 13 14 15 16
000
FTUS41 KCLE 282339
TAFYNG
TAF
KYNG 282339Z 2900/2924 VRB03KT P6SM SCT060 BKN250
     FM290200 10004KT P6SM SCT050 BKN250
     FM291400 22006KT P6SM SCT050=

USA.gov is the U.S. government's official web portal to all federal, state and local government web resources and services.